Time;durP1;ratioP1;P1;durP2;ratioP2;P2;SDS_P1;SDS_P2;PMS_P1;PMS_P2;Temp;Humidity;BMP_temperature;BMP_pressure;BME280_temperature;BME280_humidity;BME280_pressure;Samples;Min_cycle;Max_cycle;Signal;HPM_P1;HPM_P2
2023/04/25 00:00:11;;;;;;;14.20;2.63;;;6.40;99.90;;;;;;7399281;19;19915;-78
2023/04/25 00:02:41;;;;;;;16.30;3.40;;;6.40;99.90;;;;;;7396971;19;19927;-78
2023/04/25 00:05:11;;;;;;;8.18;2.22;;;6.40;99.90;;;;;;7396881;19;19922;-78
2023/04/25 00:07:41;;;;;;;9.63;2.22;;;6.40;99.90;;;;;;7397681;19;19915;-78
2023/04/25 00:10:14;;;;;;;9.10;2.42;;;6.40;99.90;;;;;;7399405;19;19946;-78
2023/04/25 00:12:43;;;;;;;10.30;2.40;;;6.60;99.90;;;;;;7397928;19;20364;-78
2023/04/25 00:15:13;;;;;;;20.00;2.70;;;6.40;99.90;;;;;;7397203;19;19927;-78
2023/04/25 00:17:42;;;;;;;17.10;2.35;;;6.40;99.90;;;;;;7397981;19;19926;-78
2023/04/25 00:20:12;;;;;;;10.65;2.10;;;6.20;99.90;;;;;;7396871;19;20288;-78
2023/04/25 00:22:41;;;;;;;9.45;2.33;;;6.40;99.90;;;;;;7397543;19;19919;-78
2023/04/25 00:25:13;;;;;;;21.48;3.10;;;6.30;99.90;;;;;;7398567;19;19914;-79
2023/04/25 00:27:42;;;;;;;6.43;2.65;;;6.30;99.90;;;;;;7403345;19;19926;-78
2023/04/25 00:30:12;;;;;;;12.48;2.30;;;6.20;99.90;;;;;;7404207;19;20264;-77
2023/04/25 00:32:41;;;;;;;11.00;2.67;;;6.20;99.90;;;;;;7403555;19;19933;-79
2023/04/25 00:48:58;;;;;;;10.32;2.78;;;6.20;99.90;;;;;;7396205;19;19933;-77
2023/04/25 00:51:28;;;;;;;11.85;3.00;;;6.40;99.90;;;;;;7402560;19;19928;-78
2023/04/25 00:53:57;;;;;;;9.30;2.22;;;6.50;99.90;;;;;;7403661;19;19922;-78
2023/04/25 00:56:26;;;;;;;18.55;2.20;;;6.10;99.90;;;;;;7405183;19;19926;-78
2023/04/25 00:58:57;;;;;;;12.52;2.78;;;6.00;99.90;;;;;;7402797;19;20357;-78
2023/04/25 01:01:26;;;;;;;10.70;2.15;;;6.20;99.90;;;;;;7404715;19;19926;-78
2023/04/25 01:04:00;;;;;;;14.90;2.50;;;6.30;99.90;;;;;;7402884;19;19918;-78
2023/04/25 01:06:30;;;;;;;11.73;2.33;;;6.90;99.90;;;;;;7402602;19;20431;-78
2023/04/25 01:08:59;;;;;;;10.55;2.83;;;6.20;99.90;;;;;;7404395;19;19926;-78
2023/04/25 01:11:28;;;;;;;12.05;2.67;;;6.10;99.90;;;;;;7401761;19;19929;-78
2023/04/25 01:13:57;;;;;;;9.73;1.98;;;7.30;99.90;;;;;;7403191;19;20013;-78
2023/04/25 01:16:27;;;;;;;9.18;2.22;;;6.20;99.90;;;;;;7402538;19;19925;-78
2023/04/25 01:18:59;;;;;;;11.48;1.77;;;6.10;99.90;;;;;;7404176;19;19930;-78
2023/04/25 01:21:30;;;;;;;;;;;6.10;99.90;;;;;;7405717;19;19930;-77
2023/04/25 01:24:00;;;;;;;8.15;1.60;;;6.10;99.90;;;;;;7400933;19;20355;-78
2023/04/25 01:26:32;;;;;;;12.35;2.05;;;6.80;99.90;;;;;;7401157;19;19918;-78
2023/04/25 01:29:01;;;;;;;15.40;1.83;;;6.00;99.90;;;;;;7403611;19;19914;-77
2023/04/25 01:31:30;;;;;;;9.27;1.80;;;6.00;99.90;;;;;;7397473;19;19958;-78
2023/04/25 01:34:00;;;;;;;14.63;3.38;;;7.30;99.90;;;;;;7401507;19;20256;-77
2023/04/25 01:36:31;;;;;;;14.82;2.85;;;6.10;99.90;;;;;;7403318;19;19923;-78
2023/04/25 01:39:01;;;;;;;13.15;2.28;;;6.10;99.90;;;;;;7402436;19;19933;-78
2023/04/25 01:41:30;;;;;;;11.45;2.03;;;6.10;99.90;;;;;;7402914;19;19918;-77
2023/04/25 01:43:59;;;;;;;11.13;2.17;;;6.00;99.90;;;;;;7401701;19;19933;-77
2023/04/25 01:46:30;;;;;;;9.95;1.75;;;6.10;99.90;;;;;;7400492;19;19923;-77
2023/04/25 01:48:59;;;;;;;7.65;1.70;;;6.10;99.90;;;;;;7399367;19;19926;-78
2023/04/25 01:51:31;;;;;;;7.78;1.42;;;6.40;99.90;;;;;;7402993;19;19922;-77
2023/04/25 01:54:01;;;;;;;11.30;2.15;;;6.00;99.90;;;;;;7401111;19;19922;-77
2023/04/25 01:56:33;;;;;;;8.75;1.42;;;6.00;99.90;;;;;;7404975;19;19929;-77
2023/04/25 01:59:02;;;;;;;8.73;1.83;;;5.90;99.90;;;;;;7401166;19;19948;-78
2023/04/25 02:01:31;;;;;;;7.32;1.40;;;5.90;99.90;;;;;;7402771;19;19918;-78
2023/04/25 02:04:00;;;;;;;9.20;1.92;;;5.90;99.90;;;;;;7402400;19;20746;-78
2023/04/25 02:06:32;;;;;;;6.15;1.55;;;6.40;99.90;;;;;;7401477;19;19914;-77
2023/04/25 02:09:01;;;;;;;11.73;1.80;;;5.80;99.90;;;;;;7402929;19;20264;-78
2023/04/25 02:11:29;;;;;;;13.27;2.03;;;6.20;99.90;;;;;;7401242;19;19926;-78
2023/04/25 02:13:58;;;;;;;11.35;1.83;;;6.60;99.90;;;;;;7401991;19;19926;-78
2023/04/25 02:16:27;;;;;;;9.38;1.73;;;6.10;99.90;;;;;;7401810;19;19926;-78
2023/04/25 02:18:56;;;;;;;8.48;1.38;;;5.90;99.90;;;;;;7401315;19;20042;-78
2023/04/25 02:21:26;;;;;;;9.52;2.00;;;6.30;99.90;;;;;;7400888;19;20391;-78
2023/04/25 02:23:57;;;;;;;13.32;2.10;;;6.50;99.90;;;;;;7399043;19;19914;-78
2023/04/25 02:26:26;;;;;;;9.25;1.63;;;6.20;99.90;;;;;;7402695;19;19926;-78
2023/04/25 02:28:55;;;;;;;13.73;2.80;;;6.90;99.90;;;;;;7400542;19;19930;-78
2023/04/25 02:31:24;;;;;;;7.13;2.17;;;5.80;99.90;;;;;;7402394;19;19942;-78
2023/04/25 02:33:53;;;;;;;7.50;1.58;;;6.60;99.90;;;;;;7403106;19;20248;-78
2023/04/25 02:36:22;;;;;;;5.57;1.35;;;5.70;99.90;;;;;;7401078;19;19934;-78
2023/04/25 02:38:51;;;;;;;7.63;1.65;;;6.00;99.90;;;;;;7399071;19;19919;-78
2023/04/25 02:41:22;;;;;;;10.35;2.17;;;5.60;99.90;;;;;;7399767;19;19950;-79
2023/04/25 02:43:51;;;;;;;11.70;2.15;;;6.30;99.90;;;;;;7400991;19;19929;-78
2023/04/25 02:46:20;;;;;;;6.10;1.40;;;6.50;99.90;;;;;;7398519;19;20293;-78
2023/04/25 02:48:49;;;;;;;14.18;1.52;;;5.60;99.90;;;;;;7399382;19;20296;-79
2023/04/25 02:51:18;;;;;;;7.82;1.67;;;5.90;99.90;;;;;;7399941;19;20349;-78
2023/04/25 02:53:48;;;;;;;6.07;1.25;;;5.10;99.90;;;;;;7398960;19;19925;-78
2023/04/25 02:56:16;;;;;;;8.00;1.77;;;5.60;99.90;;;;;;7400987;19;20530;-78
2023/04/25 02:58:48;;;;;;;7.97;2.08;;;5.60;99.90;;;;;;7397370;19;19923;-78
2023/04/25 03:01:17;;;;;;;4.95;1.52;;;5.50;99.90;;;;;;7400781;19;19929;-78
2023/04/25 03:03:46;;;;;;;5.97;1.52;;;6.50;99.90;;;;;;7399153;19;19925;-78
2023/04/25 03:06:15;;;;;;;7.03;1.50;;;5.30;99.90;;;;;;7401452;19;19934;-78
2023/04/25 03:08:44;;;;;;;6.05;1.83;;;5.20;99.90;;;;;;7399715;19;19918;-77
2023/04/25 03:11:13;;;;;;;3.53;0.80;;;5.80;99.90;;;;;;7399229;19;19922;-78
2023/04/25 03:13:41;;;;;;;7.65;1.60;;;4.40;99.90;;;;;;7400103;19;19926;-78
2023/04/25 03:16:13;;;;;;;8.57;1.67;;;5.60;99.90;;;;;;7400604;19;19946;-78
2023/04/25 03:18:42;;;;;;;7.68;1.35;;;5.10;99.90;;;;;;7398708;19;19922;-78
2023/04/25 03:21:11;;;;;;;5.78;1.17;;;5.90;99.90;;;;;;7400593;19;20457;-77
2023/04/25 03:23:39;;;;;;;2.78;0.90;;;5.00;99.90;;;;;;7399562;19;19927;-78
2023/04/25 03:26:08;;;;;;;7.07;2.00;;;5.70;99.90;;;;;;7399621;19;19940;-78
2023/04/25 03:28:37;;;;;;;2.63;0.80;;;6.00;99.90;;;;;;7399581;19;19937;-78
2023/04/25 03:31:06;;;;;;;3.53;0.70;;;5.60;99.90;;;;;;7398280;19;19929;-78
2023/04/25 03:33:38;;;;;;;3.00;0.93;;;5.30;99.90;;;;;;7400137;19;20406;-78
2023/04/25 03:36:08;;;;;;;5.53;2.17;;;5.00;99.90;;;;;;7399548;19;19914;-78
2023/04/25 03:38:37;;;;;;;5.95;1.70;;;5.10;99.90;;;;;;7399992;19;20383;-78
2023/04/25 03:41:06;;;;;;;5.95;1.60;;;4.90;99.90;;;;;;7399739;19;20354;-78
2023/04/25 03:43:34;;;;;;;8.38;1.60;;;4.30;99.90;;;;;;7397058;19;19930;-78
2023/04/25 03:46:03;;;;;;;4.80;1.10;;;5.40;99.90;;;;;;7399135;19;19928;-78
2023/04/25 03:48:32;;;;;;;4.47;1.35;;;4.90;99.90;;;;;;7398540;19;19941;-79
2023/04/25 03:51:04;;;;;;;6.05;1.10;;;5.90;99.90;;;;;;7398990;19;19994;-78
2023/04/25 03:53:35;;;;;;;3.33;0.90;;;5.50;99.90;;;;;;7397898;19;19918;-78
2023/04/25 03:56:04;;;;;;;6.40;0.90;;;5.10;99.90;;;;;;7399615;19;20546;-78
2023/04/25 03:58:33;;;;;;;3.58;0.88;;;5.30;99.90;;;;;;7393805;19;19933;-77
2023/04/25 04:01:02;;;;;;;5.53;1.00;;;4.50;99.90;;;;;;7398047;19;19930;-78
2023/04/25 04:03:31;;;;;;;4.95;0.98;;;6.00;99.90;;;;;;7400573;19;19938;-78
2023/04/25 04:06:00;;;;;;;4.72;1.60;;;4.50;99.90;;;;;;7403484;19;19930;-78
2023/04/25 04:08:32;;;;;;;6.40;1.50;;;4.50;99.90;;;;;;7400806;19;19922;-78
2023/04/25 04:11:02;;;;;;;10.93;1.33;;;5.70;99.90;;;;;;7400473;19;19927;-79
2023/04/25 04:13:31;;;;;;;6.60;1.08;;;5.00;99.90;;;;;;7406097;19;19915;-78
2023/04/25 04:16:00;;;;;;;7.82;1.63;;;4.40;99.90;;;;;;7404914;19;19925;-78
2023/04/25 04:18:29;;;;;;;9.52;2.40;;;4.10;99.90;;;;;;7403322;19;19918;-78
2023/04/25 04:20:58;;;;;;;4.82;1.00;;;5.90;99.90;;;;;;7402902;19;19922;-77
2023/04/25 04:23:28;;;;;;;5.47;1.70;;;5.80;99.90;;;;;;7402843;19;20272;-78
2023/04/25 04:25:59;;;;;;;9.13;1.38;;;5.70;99.90;;;;;;7403481;19;19918;-79
2023/04/25 04:28:29;;;;;;;8.32;2.03;;;4.00;99.90;;;;;;7401997;19;19954;-78
2023/04/25 04:30:58;;;;;;;5.47;1.55;;;5.50;99.90;;;;;;7403759;19;19922;-78
2023/04/25 04:33:28;;;;;;;10.20;1.70;;;4.70;99.90;;;;;;7404016;19;19934;-78
2023/04/25 04:35:57;;;;;;;6.63;1.30;;;4.10;99.90;;;;;;7404641;19;19918;-78
2023/04/25 04:38:26;;;;;;;7.07;1.38;;;4.90;99.90;;;;;;7405122;19;20345;-78
2023/04/25 04:40:55;;;;;;;7.68;1.17;;;5.40;99.90;;;;;;7404299;19;20643;-78
2023/04/25 04:43:28;;;;;;;4.32;1.02;;;5.50;99.90;;;;;;7403491;19;19990;-78
2023/04/25 04:45:57;;;;;;;6.13;1.33;;;4.10;99.90;;;;;;7403008;19;19924;-78
2023/04/25 04:48:26;;;;;;;7.25;1.48;;;5.00;99.90;;;;;;7401157;19;19948;-78
2023/04/25 04:50:55;;;;;;;7.18;1.00;;;4.10;99.90;;;;;;7402283;19;19933;-78
2023/04/25 04:53:24;;;;;;;9.05;1.23;;;5.50;99.90;;;;;;7401654;19;19930;-78
2023/04/25 04:55:53;;;;;;;4.03;1.20;;;5.40;99.90;;;;;;7403624;19;20346;-78
2023/04/25 04:58:23;;;;;;;5.93;1.63;;;4.90;99.90;;;;;;7402155;19;19920;-77
2023/04/25 05:00:55;;;;;;;9.35;1.00;;;6.00;99.90;;;;;;7400584;19;19922;-78
2023/04/25 05:03:23;;;;;;;;;;;4.80;99.90;;;;;;7408151;19;19965;-78
2023/04/25 05:05:52;;;;;;;2.47;0.60;;;4.90;99.90;;;;;;7405616;19;19926;-78
2023/04/25 05:08:21;;;;;;;3.53;0.60;;;4.00;99.90;;;;;;7400421;19;20388;-77
2023/04/25 05:10:50;;;;;;;3.20;0.63;;;4.90;99.90;;;;;;7400606;19;19923;-77
2023/04/25 05:13:19;;;;;;;5.07;0.77;;;5.20;99.90;;;;;;7402497;19;20340;-78
2023/04/25 05:15:47;;;;;;;4.57;0.80;;;4.40;99.90;;;;;;7403218;19;19922;-77
2023/04/25 05:18:19;;;;;;;1.92;0.65;;;5.10;99.90;;;;;;7403880;19;19938;-77
2023/04/25 05:20:48;;;;;;;3.63;0.70;;;4.20;99.90;;;;;;7402570;19;19937;-77
2023/04/25 05:23:17;;;;;;;2.75;0.90;;;5.10;99.90;;;;;;7402072;19;19923;-78
2023/04/25 05:25:46;;;;;;;4.57;0.70;;;5.60;99.90;;;;;;7403621;19;19926;-77
2023/04/25 05:28:15;;;;;;;5.63;0.93;;;6.20;99.90;;;;;;7402189;19;19945;-78
2023/04/25 05:30:44;;;;;;;10.32;1.17;;;4.30;99.90;;;;;;7403069;19;19931;-78
2023/04/25 05:33:13;;;;;;;4.05;0.73;;;4.70;99.90;;;;;;7403810;19;19926;-78
2023/04/25 05:35:45;;;;;;;4.43;1.05;;;5.70;99.90;;;;;;7402086;19;19927;-77
2023/04/25 05:38:13;;;;;;;5.55;1.20;;;5.30;99.90;;;;;;7395331;19;20307;-76
2023/04/25 05:40:43;;;;;;;3.10;0.80;;;4.30;99.90;;;;;;7400937;19;19946;-76
2023/04/25 05:43:12;;;;;;;6.25;0.70;;;5.30;99.90;;;;;;7403137;19;20548;-76
2023/04/25 05:45:41;;;;;;;3.95;0.77;;;4.50;99.90;;;;;;7404364;19;19924;-76
2023/04/25 05:48:10;;;;;;;8.73;1.20;;;5.00;99.90;;;;;;7399011;19;20344;-76
2023/04/25 05:50:39;;;;;;;5.15;0.68;;;4.70;99.90;;;;;;7401488;19;20371;-77
2023/04/25 05:53:10;;;;;;;5.30;1.10;;;4.40;99.90;;;;;;7401945;19;19915;-77
2023/04/25 05:55:39;;;;;;;5.82;0.85;;;4.90;99.90;;;;;;7403899;19;19978;-83
2023/04/25 05:58:08;;;;;;;7.15;0.90;;;4.20;99.90;;;;;;7401125;19;19929;-78
2023/04/25 06:00:38;;;;;;;4.70;1.30;;;4.40;99.90;;;;;;7401438;19;19922;-79
2023/04/25 06:03:14;;;;;;;5.25;1.17;;;4.80;99.90;;;;;;7401767;19;19922;-76
2023/04/25 06:05:44;;;;;;;6.68;1.33;;;4.90;99.90;;;;;;7400469;19;19929;-77
2023/04/25 06:08:15;;;;;;;3.83;1.15;;;4.40;99.90;;;;;;7396351;19;19922;-76
2023/04/25 06:10:44;;;;;;;4.05;0.93;;;4.40;99.90;;;;;;7398999;19;20036;-77
2023/04/25 06:13:13;;;;;;;4.00;0.90;;;5.80;99.90;;;;;;7398169;19;19926;-76
2023/04/25 06:15:42;;;;;;;5.97;0.95;;;5.10;99.90;;;;;;7403728;19;19926;-76
2023/04/25 06:18:11;;;;;;;3.97;0.75;;;5.20;99.90;;;;;;7400401;19;20273;-78
2023/04/25 06:20:40;;;;;;;6.18;0.65;;;5.90;99.90;;;;;;7399898;19;20356;-77
2023/04/25 06:23:09;;;;;;;3.85;0.80;;;5.60;99.90;;;;;;7397581;19;20482;-77
2023/04/25 06:25:41;;;;;;;4.35;0.77;;;5.00;99.90;;;;;;7401166;19;20277;-75
2023/04/25 06:28:10;;;;;;;3.25;0.88;;;5.70;99.90;;;;;;7399819;19;19927;-75
2023/04/25 06:30:38;;;;;;;3.35;0.80;;;5.80;99.90;;;;;;7399997;19;20261;-75
2023/04/25 06:33:08;;;;;;;2.83;0.77;;;4.90;99.90;;;;;;7398504;19;19993;-75
2023/04/25 06:35:37;;;;;;;4.20;1.10;;;5.30;99.90;;;;;;7399343;19;20285;-75
2023/04/25 06:38:06;;;;;;;8.15;1.02;;;5.40;99.90;;;;;;7402514;19;19926;-75
2023/04/25 06:40:35;;;;;;;7.00;1.17;;;4.90;99.90;;;;;;7400911;19;20257;-75
2023/04/25 06:43:06;;;;;;;6.22;0.88;;;6.10;99.90;;;;;;7397908;19;19918;-75
2023/04/25 06:45:35;;;;;;;5.72;1.30;;;5.40;99.90;;;;;;7401087;19;20265;-75
2023/04/25 06:48:04;;;;;;;5.30;1.10;;;5.30;99.90;;;;;;7398422;19;19926;-74
2023/04/25 06:50:33;;;;;;;6.05;1.05;;;5.50;99.90;;;;;;7400679;19;19918;-75
2023/04/25 06:53:02;;;;;;;6.32;1.05;;;5.30;99.90;;;;;;7399001;19;19922;-74
2023/04/25 06:55:30;;;;;;;5.78;0.95;;;6.10;99.90;;;;;;7400302;19;19930;-75
2023/04/25 06:57:59;;;;;;;5.45;1.05;;;5.50;99.90;;;;;;7398834;19;19922;-75
2023/04/25 07:00:32;;;;;;;5.60;1.20;;;5.20;99.90;;;;;;7397027;19;19943;-75
2023/04/25 07:03:01;;;;;;;8.80;1.27;;;5.50;99.90;;;;;;7401731;19;19911;-75
2023/04/25 07:05:30;;;;;;;4.65;1.00;;;5.60;99.90;;;;;;7399055;19;20006;-75
2023/04/25 07:08:00;;;;;;;3.90;1.23;;;6.10;99.90;;;;;;7401299;19;19919;-75
2023/04/25 07:10:29;;;;;;;9.95;1.20;;;5.40;99.90;;;;;;7400444;19;19914;-76
2023/04/25 07:12:58;;;;;;;4.53;0.77;;;5.60;99.90;;;;;;7400154;19;19922;-75
2023/04/25 07:15:27;;;;;;;3.70;0.85;;;5.60;99.90;;;;;;7400279;19;20363;-75
2023/04/25 07:17:58;;;;;;;4.13;1.63;;;5.10;99.90;;;;;;7401121;19;19926;-75
2023/04/25 07:20:27;;;;;;;6.93;0.90;;;6.00;99.90;;;;;;7399827;19;19918;-75
2023/04/25 07:22:56;;;;;;;5.22;1.00;;;6.20;99.90;;;;;;7399387;19;20285;-75
2023/04/25 07:25:25;;;;;;;5.50;0.68;;;6.90;99.90;;;;;;7400080;19;19944;-75
2023/04/25 07:27:54;;;;;;;3.13;0.65;;;7.10;99.90;;;;;;7399766;19;19930;-75
2023/04/25 07:30:23;;;;;;;5.60;0.88;;;6.30;99.90;;;;;;7397805;19;19933;-76
2023/04/25 07:32:52;;;;;;;7.95;0.90;;;6.30;99.90;;;;;;7398951;19;19911;-75
2023/04/25 07:35:23;;;;;;;8.20;1.08;;;5.70;99.90;;;;;;7404758;19;20368;-75
2023/04/25 07:37:52;;;;;;;1.50;0.80;;;4.00;99.90;;;;;;7405359;19;20273;-75
2023/04/25 07:40:21;;;;;;;2.08;0.35;;;5.80;99.90;;;;;;7406594;19;19929;-76
2023/04/25 07:42:50;;;;;;;2.00;0.60;;;6.10;99.90;;;;;;7406806;19;19929;-74
2023/04/25 07:45:19;;;;;;;4.00;0.90;;;5.70;99.90;;;;;;7406423;19;19926;-74
2023/04/25 07:47:48;;;;;;;7.15;2.33;;;5.70;99.90;;;;;;7404963;19;19928;-75
2023/04/25 07:50:17;;;;;;;1.85;0.70;;;5.80;99.90;;;;;;7406227;19;19933;-74
2023/04/25 07:52:48;;;;;;;3.88;0.88;;;6.40;99.90;;;;;;7405282;19;19927;-74
2023/04/25 07:55:17;;;;;;;6.60;1.15;;;6.00;99.90;;;;;;7405202;19;19926;-74
2023/04/25 07:57:46;;;;;;;3.58;0.65;;;6.00;99.90;;;;;;7405273;19;20581;-75
2023/04/25 08:00:16;;;;;;;2.83;1.08;;;6.10;99.90;;;;;;7406643;19;19970;-75
2023/04/25 08:02:45;;;;;;;6.25;0.90;;;6.10;99.90;;;;;;7406542;19;19919;-75
2023/04/25 08:05:16;;;;;;;4.07;1.45;;;5.70;99.90;;;;;;7406495;19;20452;-75
2023/04/25 08:07:44;;;;;;;5.32;2.15;;;6.10;99.90;;;;;;7405556;19;19923;-75
2023/04/25 08:10:16;;;;;;;8.45;1.50;;;6.30;99.90;;;;;;7405874;19;19925;-75
2023/04/25 08:12:45;;;;;;;4.95;1.13;;;6.40;99.90;;;;;;7404410;19;19918;-75
2023/04/25 08:15:14;;;;;;;4.95;0.82;;;7.60;99.90;;;;;;7407249;19;19914;-75
2023/04/25 08:17:43;;;;;;;3.65;1.25;;;6.60;99.90;;;;;;7412236;19;19943;-75
2023/04/25 08:20:14;;;;;;;10.45;1.02;;;6.80;99.90;;;;;;7406268;19;19958;-75
2023/04/25 08:22:43;;;;;;;6.75;1.73;;;7.00;99.90;;;;;;7405478;19;19933;-75
2023/04/25 08:25:11;;;;;;;4.32;1.02;;;7.10;99.90;;;;;;7406293;19;20030;-75
2023/04/25 08:27:43;;;;;;;5.40;1.70;;;7.20;99.90;;;;;;7404692;19;19923;-75
2023/04/25 08:30:12;;;;;;;6.18;1.63;;;6.90;99.90;;;;;;7404809;19;19945;-75
2023/04/25 08:32:41;;;;;;;3.65;1.38;;;7.00;99.90;;;;;;7405022;19;19926;-75
2023/04/25 08:35:11;;;;;;;11.05;1.10;;;6.90;99.90;;;;;;7406182;19;20548;-75
2023/04/25 08:37:41;;;;;;;5.78;1.00;;;6.90;99.90;;;;;;7404587;19;19918;-76
2023/04/25 08:40:16;;;;;;;5.63;0.82;;;7.00;99.90;;;;;;7406025;19;20225;-75
2023/04/25 08:42:49;;;;;;;4.90;0.80;;;7.10;99.90;;;;;;7404379;19;19914;-75
2023/04/25 08:45:18;;;;;;;4.25;1.08;;;7.10;99.90;;;;;;7403656;19;20268;-75
2023/04/25 08:47:50;;;;;;;5.22;1.50;;;8.40;99.90;;;;;;7402192;19;20306;-75
2023/04/25 08:50:22;;;;;;;1.60;0.90;;;7.40;99.90;;;;;;7404392;19;19929;-76
2023/04/25 08:52:53;;;;;;;3.70;0.70;;;7.20;99.90;;;;;;7400995;19;19914;-75
2023/04/25 08:55:23;;;;;;;0.95;0.40;;;7.00;99.90;;;;;;7402553;19;20361;-75
2023/04/25 08:57:57;;;;;;;3.42;0.60;;;7.90;99.90;;;;;;7401409;19;19915;-75
2023/04/25 09:00:26;;;;;;;1.98;0.43;;;6.60;99.90;;;;;;7401553;19;19923;-75
2023/04/25 09:02:56;;;;;;;3.42;0.60;;;6.40;99.90;;;;;;7403182;19;19925;-75
2023/04/25 09:05:28;;;;;;;2.25;0.50;;;6.40;99.90;;;;;;7404206;19;19915;-75
2023/04/25 09:07:58;;;;;;;4.13;0.60;;;6.10;99.90;;;;;;7402103;19;19962;-75
2023/04/25 09:10:26;;;;;;;1.77;0.70;;;6.00;99.90;;;;;;7404311;19;19922;-75
2023/04/25 09:13:15;;;;;;;1.55;0.60;;;6.60;99.90;;;;;;7402293;19;19918;-75
2023/04/25 09:15:54;;;;;;;2.28;0.40;;;6.60;99.90;;;;;;7404768;19;20348;-75
2023/04/25 09:18:30;;;;;;;2.00;0.40;;;6.40;99.90;;;;;;7403082;19;19918;-74
2023/04/25 09:21:01;;;;;;;4.53;0.80;;;6.40;99.90;;;;;;7402945;19;19922;-75
2023/04/25 09:23:30;;;;;;;4.40;0.75;;;6.40;99.90;;;;;;7401547;19;20340;-75
2023/04/25 09:25:59;;;;;;;3.97;0.70;;;6.70;99.90;;;;;;7402113;19;20096;-75
2023/04/25 09:28:30;;;;;;;7.22;1.15;;;6.80;99.90;;;;;;7402028;19;20362;-75
2023/04/25 09:31:00;;;;;;;6.10;1.33;;;7.00;99.90;;;;;;7404651;19;20287;-75
2023/04/25 09:33:34;;;;;;;2.17;0.60;;;7.20;99.90;;;;;;7403222;19;19930;-75
2023/04/25 09:36:09;;;;;;;4.15;0.68;;;7.00;99.90;;;;;;7402655;19;19930;-76
2023/04/25 09:38:44;;;;;;;6.35;1.65;;;7.30;99.90;;;;;;7402122;19;19926;-76
2023/04/25 09:41:13;;;;;;;5.50;1.23;;;7.30;99.90;;;;;;7403024;19;19922;-74
2023/04/25 09:43:48;;;;;;;3.85;1.63;;;7.30;99.90;;;;;;7400974;19;19922;-74
2023/04/25 09:46:18;;;;;;;4.90;1.02;;;8.30;99.90;;;;;;7401880;19;19994;-74
2023/04/25 09:48:53;;;;;;;4.90;1.38;;;7.40;99.90;;;;;;7402116;19;19923;-74
2023/04/25 09:51:22;;;;;;;2.47;1.33;;;8.10;99.90;;;;;;7404036;19;19923;-74
2023/04/25 09:53:52;;;;;;;5.20;1.00;;;7.40;99.90;;;;;;7399955;19;19923;-75
2023/04/25 09:56:22;;;;;;;3.10;0.88;;;7.60;99.90;;;;;;7403177;19;19926;-75
2023/04/25 09:58:57;;;;;;;5.80;1.10;;;8.10;99.90;;;;;;7399432;19;19918;-74
2023/04/25 10:01:27;;;;;;;4.78;1.00;;;7.90;99.90;;;;;;7402057;19;19918;-78
2023/04/25 10:04:00;;;;;;;2.08;0.50;;;8.00;99.90;;;;;;7401958;19;19918;-77
2023/04/25 10:06:31;;;;;;;4.63;1.10;;;7.50;99.90;;;;;;7394002;19;19926;-82
2023/04/25 10:09:00;;;;;;;4.25;0.70;;;7.10;99.90;;;;;;7402630;19;20061;-78
2023/04/25 10:11:31;;;;;;;7.30;0.90;;;6.90;99.90;;;;;;7397617;19;20341;-78
2023/04/25 10:14:03;;;;;;;2.55;0.90;;;6.60;99.90;;;;;;7400619;19;19911;-77
2023/04/25 10:16:32;;;;;;;;;;;6.60;99.90;;;;;;7403121;19;19951;-76
2023/04/25 10:19:02;;;;;;;2.72;0.60;;;7.50;99.90;;;;;;7402518;19;19926;-77
2023/04/25 10:21:36;;;;;;;1.90;0.45;;;7.50;99.90;;;;;;7398519;19;19919;-78
2023/04/25 10:24:06;;;;;;;2.70;0.65;;;6.90;99.90;;;;;;7401930;19;19918;-77
2023/04/25 10:26:35;;;;;;;6.47;1.20;;;7.10;99.90;;;;;;7402679;19;19929;-78
2023/04/25 10:29:06;;;;;;;6.28;1.13;;;7.40;99.90;;;;;;7401363;19;19927;-76
2023/04/25 10:31:35;;;;;;;3.75;0.50;;;7.60;99.90;;;;;;7402349;19;20340;-77
2023/04/25 10:34:05;;;;;;;3.55;0.63;;;8.60;99.90;;;;;;7400351;19;19923;-77
2023/04/25 10:36:37;;;;;;;3.30;0.80;;;7.80;99.90;;;;;;7401429;19;19926;-77
2023/04/25 10:39:08;;;;;;;;;;;7.90;99.90;;;;;;7405238;19;19918;-77
2023/04/25 10:41:50;;;;;;;2.55;0.98;;;8.20;99.90;;;;;;7401600;19;19929;-78
2023/04/25 10:44:22;;;;;;;4.60;0.95;;;8.40;99.90;;;;;;7399356;19;19922;-79
2023/04/25 10:46:51;;;;;;;3.67;0.77;;;8.70;99.90;;;;;;7400663;19;19939;-78
2023/04/25 10:49:39;;;;;;;7.93;1.20;;;8.80;99.90;;;;;;7400573;19;19929;-78
2023/04/25 10:52:15;;;;;;;6.63;1.00;;;8.50;99.90;;;;;;7399337;19;19922;-78
2023/04/25 10:54:44;;;;;;;4.03;1.00;;;8.10;99.90;;;;;;7399667;19;19928;-77
2023/04/25 10:57:30;;;;;;;3.17;0.70;;;8.00;99.90;;;;;;7396674;19;19926;-77
2023/04/25 11:00:09;;;;;;;3.30;0.90;;;7.30;99.90;;;;;;7399537;19;19935;-79
2023/04/25 11:02:46;;;;;;;2.28;0.52;;;7.60;99.90;;;;;;7400513;19;20084;-80
2023/04/25 11:05:24;;;;;;;3.55;1.38;;;7.30;99.90;;;;;;7398593;19;19915;-79
2023/04/25 11:07:57;;;;;;;1.58;0.50;;;7.50;99.90;;;;;;7399048;19;19927;-79
2023/04/25 11:10:28;;;;;;;2.83;0.50;;;7.40;99.90;;;;;;7397143;19;19923;-80
2023/04/25 11:12:57;;;;;;;3.83;0.70;;;7.30;99.90;;;;;;7400600;19;19914;-77
2023/04/25 11:15:29;;;;;;;6.47;1.50;;;7.20;99.90;;;;;;7400767;19;19930;-76
2023/04/25 11:17:58;;;;;;;4.75;0.90;;;8.30;99.90;;;;;;7398215;19;19918;-78
2023/04/25 11:20:28;;;;;;;4.38;0.93;;;7.40;99.90;;;;;;7400014;19;19926;-78
2023/04/25 11:23:01;;;;;;;4.28;0.88;;;7.60;99.90;;;;;;7400643;19;19929;-88
2023/04/25 11:25:31;;;;;;;4.05;0.82;;;7.80;99.90;;;;;;7402694;19;20306;-85
2023/04/25 11:28:01;;;;;;;4.45;0.63;;;8.20;99.90;;;;;;7398205;19;19926;-76
2023/04/25 11:30:32;;;;;;;3.13;1.13;;;8.50;99.90;;;;;;7396665;19;19926;-76
2023/04/25 11:33:03;;;;;;;6.22;1.15;;;8.50;99.90;;;;;;7396617;19;19985;-76
2023/04/25 11:35:33;;;;;;;7.97;1.30;;;8.40;99.90;;;;;;7398915;19;19918;-77
2023/04/25 11:38:02;;;;;;;4.75;1.30;;;8.10;99.90;;;;;;7396291;19;19944;-77
2023/04/25 11:40:32;;;;;;;5.15;1.10;;;7.70;99.90;;;;;;7392460;19;19922;-77
2023/04/25 11:43:03;;;;;;;5.53;1.25;;;7.40;99.90;;;;;;7397201;19;19922;-77
2023/04/25 11:45:35;;;;;;;3.30;0.80;;;7.50;99.90;;;;;;7400478;19;19934;-77
2023/04/25 11:48:05;;;;;;;3.72;0.70;;;7.50;99.90;;;;;;7398741;19;19918;-76
2023/04/25 11:50:35;;;;;;;3.97;0.85;;;7.50;99.90;;;;;;7396894;19;19949;-76
2023/04/25 11:53:03;;;;;;;7.80;1.38;;;7.80;99.90;;;;;;7394452;19;19922;-76
2023/04/25 11:55:33;;;;;;;3.88;0.60;;;7.90;99.90;;;;;;7398645;19;19929;-75
2023/04/25 11:58:03;;;;;;;3.25;0.93;;;8.30;99.90;;;;;;7395886;19;19933;-77
2023/04/25 12:00:44;;;;;;;4.10;0.60;;;8.60;99.90;;;;;;7399054;19;19931;-76
2023/04/25 12:03:13;;;;;;;3.28;0.77;;;8.70;99.90;;;;;;7397023;19;19914;-75
2023/04/25 12:05:42;;;;;;;2.58;0.65;;;8.80;99.90;;;;;;7398296;19;19922;-76
2023/04/25 12:08:15;;;;;;;8.18;1.60;;;8.80;99.90;;;;;;7394722;19;20348;-75
2023/04/25 12:10:46;;;;;;;5.32;0.93;;;8.80;99.90;;;;;;7395378;19;19925;-77
2023/04/25 12:13:25;;;;;;;4.95;0.68;;;8.90;99.90;;;;;;7397686;19;20369;-76
2023/04/25 12:15:58;;;;;;;4.50;0.60;;;8.80;99.90;;;;;;7398094;19;19926;-77
2023/04/25 12:18:28;;;;;;;1.15;0.77;;;8.60;99.90;;;;;;7395744;19;19922;-76
2023/04/25 12:20:57;;;;;;;4.50;1.05;;;8.20;99.90;;;;;;7399920;19;20345;-77
2023/04/25 12:23:30;;;;;;;5.25;0.80;;;8.40;99.90;;;;;;7403760;19;19960;-77
2023/04/25 12:26:02;;;;;;;1.80;0.60;;;8.80;99.90;;;;;;7400915;19;19928;-77
2023/04/25 12:28:34;;;;;;;3.40;0.90;;;8.80;99.90;;;;;;7402673;19;20348;-77
2023/04/25 12:31:07;;;;;;;5.60;1.08;;;9.00;99.90;;;;;;7401955;19;19915;-77
2023/04/25 12:33:37;;;;;;;5.60;1.00;;;9.10;99.90;;;;;;7405047;19;19926;-77
2023/04/25 12:36:12;;;;;;;2.72;0.68;;;9.10;99.90;;;;;;7403697;19;19914;-77
2023/04/25 12:38:42;;;;;;;1.92;0.60;;;8.70;99.90;;;;;;7401814;19;20241;-76
2023/04/25 12:41:12;;;;;;;9.77;1.67;;;8.70;99.90;;;;;;7403658;19;19954;-76
2023/04/25 12:43:40;;;;;;;7.30;0.95;;;9.00;99.90;;;;;;7402223;19;20256;-77
2023/04/25 12:46:12;;;;;;;7.70;0.98;;;8.90;99.90;;;;;;7397669;19;19922;-77
2023/04/25 12:48:41;;;;;;;6.30;1.48;;;8.60;99.90;;;;;;7404112;19;19949;-77
2023/04/25 12:51:10;;;;;;;5.68;1.40;;;8.40;99.90;;;;;;7399504;19;19918;-77
2023/04/25 12:53:40;;;;;;;5.70;0.98;;;8.50;99.90;;;;;;7402463;19;19977;-76
2023/04/25 12:56:09;;;;;;;4.18;0.93;;;8.30;99.90;;;;;;7402402;19;20291;-78
2023/04/25 12:58:39;;;;;;;6.28;0.93;;;8.10;99.90;;;;;;7401152;19;19919;-75
2023/04/25 13:01:08;;;;;;;6.93;1.05;;;8.10;99.90;;;;;;7402069;19;19947;-75
2023/04/25 13:03:40;;;;;;;2.72;0.77;;;8.40;99.90;;;;;;7403228;19;19962;-75
2023/04/25 13:06:09;;;;;;;12.45;1.27;;;8.00;99.90;;;;;;7402915;19;19976;-75
2023/04/25 13:08:39;;;;;;;6.53;0.75;;;8.20;99.90;;;;;;7400668;19;20684;-76
2023/04/25 13:11:08;;;;;;;6.03;0.80;;;8.50;99.90;;;;;;7397609;19;19914;-77
2023/04/25 13:13:37;;;;;;;2.97;0.90;;;8.80;99.90;;;;;;7403221;19;20336;-77
2023/04/25 13:16:08;;;;;;;7.05;1.15;;;8.80;99.90;;;;;;7403324;19;19926;-77
2023/04/25 13:18:39;;;;;;;3.70;0.70;;;9.10;99.90;;;;;;7401712;19;19942;-77
2023/04/25 13:21:08;;;;;;;2.30;0.57;;;9.40;99.90;;;;;;7401893;19;19918;-77
2023/04/25 13:23:37;;;;;;;1.85;0.68;;;9.20;99.90;;;;;;7402869;19;20006;-76
2023/04/25 13:26:06;;;;;;;3.28;0.63;;;8.90;99.90;;;;;;7400613;19;20260;-76